createdAt,value
2023-04-19T00:02:25.700Z,17.78
2023-04-19T00:04:53.835Z,17.73
2023-04-19T00:07:21.388Z,17.89
2023-04-19T00:09:48.841Z,17.81
2023-04-19T00:12:16.501Z,17.81
2023-04-19T00:14:43.869Z,17.74
2023-04-19T00:17:11.857Z,17.65
2023-04-19T00:19:39.583Z,17.15
2023-04-19T00:22:06.953Z,16.75
2023-04-19T00:24:34.398Z,17.02
2023-04-19T00:27:02.510Z,17.36
2023-04-19T00:29:29.987Z,17.32
2023-04-19T00:31:59.363Z,17.03
2023-04-19T00:34:27.102Z,17.38
2023-04-19T00:36:56.823Z,16.83
2023-04-19T00:39:24.314Z,17.07
2023-04-19T00:41:53.086Z,16.97
2023-04-19T00:44:20.777Z,16.76
2023-04-19T00:46:48.492Z,17.08
2023-04-19T00:49:18.391Z,17.18
2023-04-19T00:51:46.786Z,17.08
2023-04-19T00:54:15.260Z,16.80
2023-04-19T00:56:44.656Z,16.66
2023-04-19T00:59:13.180Z,16.58
2023-04-19T01:01:41.703Z,16.13
2023-04-19T01:04:09.743Z,16.35
2023-04-19T01:06:38.557Z,16.34
2023-04-19T01:09:05.940Z,16.39
2023-04-19T01:11:34.138Z,16.27
2023-04-19T01:14:01.486Z,16.09
2023-04-19T01:16:28.987Z,15.96
2023-04-19T01:18:57.062Z,16.09
2023-04-19T01:21:24.690Z,16.15
2023-04-19T01:23:52.416Z,16.22
2023-04-19T01:26:21.065Z,16.15
2023-04-19T01:28:48.493Z,16.15
2023-04-19T01:31:17.101Z,16.31
2023-04-19T01:33:44.821Z,16.25
2023-04-19T01:36:13.093Z,16.36
2023-04-19T01:38:41.633Z,16.28
2023-04-19T01:41:10.582Z,15.71
2023-04-19T01:43:37.998Z,15.45
2023-04-19T01:46:05.529Z,15.77
2023-04-19T01:48:34.072Z,15.85
2023-04-19T01:51:01.542Z,15.64
2023-04-19T01:53:29.035Z,15.59
2023-04-19T01:55:56.856Z,15.23
2023-04-19T01:58:24.260Z,15.23
2023-04-19T02:00:51.798Z,15.35
2023-04-19T02:03:19.745Z,15.28
2023-04-19T02:05:47.496Z,15.30
2023-04-19T02:08:14.889Z,15.28
2023-04-19T02:10:42.559Z,15.05
2023-04-19T02:13:09.961Z,15.07
2023-04-19T02:15:37.602Z,15.18
2023-04-19T02:18:07.012Z,15.24
2023-04-19T02:20:34.676Z,15.23
2023-04-19T02:23:02.108Z,15.15
2023-04-19T02:25:29.847Z,15.03
2023-04-19T02:27:57.715Z,15.12
2023-04-19T02:30:25.332Z,15.01
2023-04-19T02:32:54.927Z,14.63
2023-04-19T02:35:23.071Z,14.60
2023-04-19T02:37:50.544Z,14.96
2023-04-19T02:40:19.012Z,15.05
2023-04-19T02:42:46.634Z,15.09
2023-04-19T02:45:14.098Z,14.82
2023-04-19T02:47:41.712Z,15.08
2023-04-19T02:50:09.725Z,15.11
2023-04-19T02:52:39.696Z,14.97
2023-04-19T02:55:07.660Z,15.07
2023-04-19T02:57:35.703Z,15.01
2023-04-19T03:00:05.871Z,14.88
2023-04-19T03:02:34.016Z,15.24
2023-04-19T03:05:01.789Z,15.33
2023-04-19T03:07:29.368Z,15.26
2023-04-19T03:09:56.786Z,15.19
2023-04-19T03:12:24.409Z,15.15
2023-04-19T03:14:51.824Z,15.15
2023-04-19T03:17:19.297Z,14.87
2023-04-19T03:19:47.861Z,14.76
2023-04-19T03:22:16.075Z,14.99
2023-04-19T03:24:43.647Z,15.20
2023-04-19T03:27:12.252Z,15.08
2023-04-19T03:29:39.815Z,14.92
2023-04-19T03:32:07.974Z,14.93
2023-04-19T03:34:35.653Z,14.86
2023-04-19T03:37:03.050Z,14.97
2023-04-19T03:39:31.011Z,14.82
2023-04-19T03:41:59.256Z,14.18
2023-04-19T03:44:26.842Z,14.28
2023-04-19T03:46:54.279Z,14.23
2023-04-19T03:49:22.408Z,14.51
2023-04-19T03:51:50.576Z,14.55
2023-04-19T03:54:18.145Z,14.82
2023-04-19T03:56:45.852Z,14.96
2023-04-19T03:59:13.926Z,14.96
2023-04-19T04:01:43.072Z,14.78
2023-04-19T04:04:12.062Z,14.40
2023-04-19T04:06:39.760Z,14.34
2023-04-19T04:09:07.748Z,13.75
2023-04-19T04:11:35.540Z,14.25
2023-04-19T04:14:04.110Z,14.53
2023-04-19T04:16:31.844Z,14.81
2023-04-19T04:18:59.699Z,14.32
2023-04-19T04:21:28.246Z,14.23
2023-04-19T04:23:56.383Z,14.56
2023-04-19T04:26:25.450Z,14.74
2023-04-19T04:28:53.795Z,14.51
2023-04-19T04:31:21.226Z,14.80
2023-04-19T04:33:49.120Z,14.98
2023-04-19T04:36:18.348Z,15.05
2023-04-19T04:38:45.884Z,14.99
2023-04-19T04:41:13.573Z,15.00
2023-04-19T04:43:41.412Z,15.07
2023-04-19T04:46:09.111Z,15.02
2023-04-19T04:48:37.457Z,15.05
2023-04-19T04:51:05.285Z,15.20
2023-04-19T04:53:33.074Z,14.79
2023-04-19T04:56:02.461Z,14.84
2023-04-19T04:58:30.491Z,14.33
2023-04-19T05:00:58.260Z,15.03
2023-04-19T05:03:27.350Z,15.05
2023-04-19T05:05:55.041Z,15.27
2023-04-19T05:08:27.142Z,15.34
2023-04-19T05:10:55.783Z,15.70
2023-04-19T05:13:23.726Z,15.71
2023-04-19T05:15:51.317Z,15.72
2023-04-19T05:18:19.666Z,15.85
2023-04-19T05:20:47.096Z,15.98
2023-04-19T05:23:14.604Z,16.18
2023-04-19T05:25:42.931Z,16.30
2023-04-19T05:28:10.781Z,16.24
2023-04-19T05:30:38.571Z,16.13
2023-04-19T05:33:06.653Z,16.50
2023-04-19T05:35:34.065Z,16.33
2023-04-19T05:38:01.758Z,17.09
2023-04-19T05:40:29.725Z,17.86
2023-04-19T05:42:59.164Z,19.46
2023-04-19T05:45:26.810Z,20.18
2023-04-19T05:47:54.572Z,21.38
2023-04-19T05:50:23.898Z,21.42
2023-04-19T05:52:52.344Z,20.79
2023-04-19T05:55:20.181Z,19.76
2023-04-19T05:57:47.672Z,19.76
2023-04-19T06:00:16.284Z,19.48
2023-04-19T06:02:44.905Z,19.63
2023-04-19T06:05:12.997Z,18.70
2023-04-19T06:07:43.815Z,18.39
2023-04-19T06:10:23.424Z,17.82
2023-04-19T06:12:50.995Z,17.50
2023-04-19T06:15:18.441Z,17.31
2023-04-19T06:17:46.728Z,17.60
2023-04-19T06:20:14.230Z,17.06
2023-04-19T06:22:43.585Z,17.31
2023-04-19T06:25:11.299Z,17.77
2023-04-19T06:27:39.085Z,17.57
2023-04-19T06:30:07.241Z,17.74
2023-04-19T06:32:34.930Z,17.72
2023-04-19T06:35:02.511Z,18.25
2023-04-19T06:37:29.925Z,18.60
2023-04-19T06:39:57.540Z,17.89
2023-04-19T06:42:26.034Z,18.48
2023-04-19T06:44:56.970Z,18.88
2023-04-19T06:47:24.681Z,19.00
2023-04-19T06:49:52.188Z,18.89
2023-04-19T06:52:19.760Z,18.29
2023-04-19T06:54:49.169Z,18.67
2023-04-19T06:57:17.262Z,18.64
2023-04-19T06:59:44.744Z,18.88
2023-04-19T07:02:12.536Z,18.92
2023-04-19T07:04:40.198Z,18.48
2023-04-19T07:07:07.722Z,19.27
2023-04-19T07:09:35.427Z,19.14
2023-04-19T07:12:02.924Z,19.26
2023-04-19T07:14:31.378Z,19.54
2023-04-19T07:16:59.062Z,18.63
2023-04-19T07:19:26.461Z,18.65
2023-04-19T07:21:53.888Z,18.70
2023-04-19T07:24:21.753Z,17.97
2023-04-19T07:26:49.184Z,18.22
2023-04-19T07:29:16.656Z,17.69
2023-04-19T07:31:44.634Z,18.00
2023-04-19T07:34:12.206Z,18.07
2023-04-19T07:36:39.622Z,17.83
2023-04-19T07:39:07.312Z,18.36
2023-04-19T07:41:36.084Z,18.48
2023-04-19T07:44:03.935Z,18.73
2023-04-19T07:46:31.723Z,18.25
2023-04-19T07:48:59.142Z,17.92
2023-04-19T07:51:26.547Z,18.42
2023-04-19T07:53:54.338Z,18.87
2023-04-19T07:56:22.512Z,18.48
2023-04-19T07:59:04.237Z,18.69
2023-04-19T08:01:35.746Z,18.99
2023-04-19T08:04:04.049Z,19.15
2023-04-19T08:06:32.646Z,18.63
2023-04-19T08:09:00.174Z,19.21
2023-04-19T08:11:27.859Z,19.20
2023-04-19T08:14:06.813Z,19.09
2023-04-19T08:17:21.411Z,19.04
2023-04-19T08:19:30.395Z,19.47
2023-04-19T08:21:58.111Z,19.70
2023-04-19T08:24:25.716Z,20.05
2023-04-19T08:26:54.303Z,20.45
2023-04-19T08:29:23.119Z,21.08
2023-04-19T08:31:50.600Z,20.95
2023-04-19T08:34:18.053Z,20.50
2023-04-19T08:36:56.019Z,20.60
2023-04-19T08:39:34.748Z,20.80
2023-04-19T08:42:24.832Z,21.14
2023-04-19T08:45:25.961Z,21.42
2023-04-19T08:47:59.779Z,21.12
2023-04-19T08:50:35.347Z,21.23
2023-04-19T08:53:23.090Z,20.51
2023-04-19T08:56:08.709Z,20.97
2023-04-19T08:58:57.843Z,21.02
2023-04-19T09:01:35.411Z,20.69
2023-04-19T09:04:21.552Z,21.04
2023-04-19T09:06:55.066Z,20.92
2023-04-19T09:11:59.545Z,19.83
2023-04-19T09:14:28.779Z,19.91
2023-04-19T09:17:17.463Z,20.51
2023-04-19T09:19:49.384Z,20.54
2023-04-19T09:22:17.050Z,20.62
2023-04-19T09:27:36.430Z,20.58
2023-04-19T09:30:10.850Z,20.74
2023-04-19T09:32:47.569Z,20.40
2023-04-19T09:35:15.556Z,20.76
2023-04-19T09:40:25.862Z,21.17
2023-04-19T09:43:08.677Z,21.30
2023-04-19T09:45:43.482Z,21.53
2023-04-19T09:48:12.455Z,21.67
2023-04-19T09:51:03.205Z,21.98
2023-04-19T09:53:34.273Z,22.05
2023-04-19T09:56:03.359Z,21.53
2023-04-19T10:01:13.404Z,21.77
2023-04-19T10:03:45.811Z,21.72
2023-04-19T10:06:40.088Z,22.29
2023-04-19T10:09:05.079Z,21.91
2023-04-19T10:11:42.899Z,22.10
2023-04-19T10:14:11.812Z,22.77
2023-04-19T10:16:39.530Z,22.52
2023-04-19T10:19:10.292Z,22.44
2023-04-19T10:21:38.935Z,22.42
2023-04-19T10:24:06.720Z,22.28
2023-04-19T10:27:08.834Z,22.51
2023-04-19T10:29:51.882Z,22.61
2023-04-19T10:32:19.525Z,22.67
2023-04-19T10:34:47.453Z,22.55
2023-04-19T10:37:15.116Z,22.83
2023-04-19T10:39:45.797Z,22.84
2023-04-19T10:42:13.625Z,22.59
2023-04-19T10:44:41.037Z,22.61
2023-04-19T10:47:08.496Z,22.73
2023-04-19T10:49:46.486Z,22.03
2023-04-19T10:52:27.437Z,21.80
2023-04-19T10:54:57.982Z,21.36
2023-04-19T10:57:25.438Z,21.84
2023-04-19T11:00:25.760Z,22.14
2023-04-19T11:02:53.748Z,22.33
2023-04-19T11:05:21.482Z,21.67
2023-04-19T11:07:48.895Z,21.60
2023-04-19T11:10:28.331Z,21.71
2023-04-19T11:12:55.824Z,21.54
2023-04-19T11:15:24.311Z,21.65
2023-04-19T11:18:08.835Z,21.86
2023-04-19T11:20:43.305Z,21.93
2023-04-19T11:23:18.023Z,21.90
2023-04-19T11:25:46.588Z,22.25
2023-04-19T11:28:17.438Z,21.91
2023-04-19T11:30:46.303Z,21.83
2023-04-19T11:33:14.028Z,22.01
2023-04-19T11:35:43.681Z,21.82
2023-04-19T11:38:13.185Z,21.40
2023-04-19T11:40:40.904Z,21.27
2023-04-19T11:43:08.316Z,21.05
2023-04-19T11:45:39.774Z,21.72
2023-04-19T11:48:15.069Z,21.27
2023-04-19T11:50:43.654Z,21.48
2023-04-19T11:53:21.670Z,21.09
2023-04-19T11:55:57.557Z,21.20
2023-04-19T11:58:36.186Z,21.30
2023-04-19T12:01:07.868Z,20.94
2023-04-19T12:03:40.238Z,20.69
2023-04-19T12:06:11.932Z,20.71
2023-04-19T12:08:43.901Z,19.67
2023-04-19T12:11:11.304Z,20.04
2023-04-19T12:13:40.694Z,20.75
2023-04-19T12:16:08.875Z,20.04
2023-04-19T12:18:50.300Z,20.68
2023-04-19T12:21:45.482Z,20.61
2023-04-19T12:24:15.891Z,20.50
2023-04-19T12:26:56.190Z,20.65
2023-04-19T12:29:23.985Z,20.80
2023-04-19T12:31:51.823Z,20.79
2023-04-19T12:34:19.312Z,20.19
2023-04-19T12:36:46.691Z,19.89
2023-04-19T12:39:14.562Z,20.36
2023-04-19T12:41:42.265Z,20.64
2023-04-19T12:44:09.716Z,20.57
2023-04-19T12:46:37.504Z,20.77
2023-04-19T12:49:04.965Z,20.97
2023-04-19T12:51:32.838Z,20.67
2023-04-19T12:54:02.373Z,20.64
2023-04-19T12:56:29.792Z,20.22
2023-04-19T12:58:57.249Z,20.85
2023-04-19T13:01:24.950Z,20.88
2023-04-19T13:03:52.673Z,20.72
2023-04-19T13:06:21.169Z,20.57
2023-04-19T13:08:48.857Z,20.00
2023-04-19T13:11:22.794Z,20.01
2023-04-19T13:13:52.005Z,19.87
2023-04-19T13:16:19.953Z,19.94
2023-04-19T13:18:47.429Z,20.23
2023-04-19T13:21:15.370Z,19.72
2023-04-19T13:23:44.383Z,20.10
2023-04-19T13:26:12.473Z,20.17
2023-04-19T13:28:41.672Z,19.39
2023-04-19T13:31:09.387Z,19.33
2023-04-19T13:33:36.935Z,19.58
2023-04-19T13:36:04.954Z,19.68
2023-04-19T13:38:32.364Z,19.89
2023-04-19T13:41:00.331Z,19.57
2023-04-19T13:43:27.979Z,19.36
2023-04-19T13:45:55.480Z,19.80
2023-04-19T13:48:22.967Z,19.62
2023-04-19T13:50:52.453Z,19.43
2023-04-19T13:53:19.844Z,19.52
2023-04-19T13:55:47.284Z,19.22
2023-04-19T13:58:14.976Z,19.65
2023-04-19T14:00:42.414Z,19.17
2023-04-19T14:03:10.504Z,19.48
2023-04-19T14:05:38.042Z,19.41
2023-04-19T14:08:05.597Z,19.99
2023-04-19T14:10:34.462Z,19.59
2023-04-19T14:13:02.017Z,19.92
2023-04-19T14:15:29.577Z,19.57
2023-04-19T14:17:57.351Z,19.69
2023-04-19T14:20:24.796Z,19.21
2023-04-19T14:22:52.390Z,19.22
2023-04-19T14:25:20.334Z,19.38
2023-04-19T14:27:47.967Z,19.57
2023-04-19T14:30:15.640Z,19.23
2023-04-19T14:32:43.424Z,19.44
2023-04-19T14:35:11.362Z,19.43
2023-04-19T14:37:38.845Z,19.72
2023-04-19T14:40:07.260Z,20.33
2023-04-19T14:42:34.822Z,19.63
2023-04-19T14:45:02.278Z,19.83
2023-04-19T14:47:30.428Z,19.45
2023-04-19T14:49:58.290Z,19.38
2023-04-19T14:52:26.192Z,19.08
2023-04-19T14:54:54.229Z,19.19
2023-04-19T14:57:21.650Z,19.19
2023-04-19T14:59:49.125Z,18.67
2023-04-19T15:02:16.957Z,19.40
2023-04-19T15:04:44.643Z,18.87
2023-04-19T15:07:12.218Z,19.17
2023-04-19T15:09:40.867Z,18.90
2023-04-19T15:12:08.485Z,19.23
2023-04-19T15:14:35.947Z,19.15
2023-04-19T15:17:04.063Z,19.34
2023-04-19T15:19:31.611Z,18.83
2023-04-19T15:21:59.080Z,18.79
2023-04-19T15:24:26.861Z,18.68
2023-04-19T15:26:54.466Z,18.50
2023-04-19T15:29:21.894Z,18.67
2023-04-19T15:31:49.705Z,18.46
2023-04-19T15:34:17.292Z,18.43
2023-04-19T15:36:44.948Z,18.61
2023-04-19T15:39:12.708Z,19.08
2023-04-19T15:41:40.165Z,18.52
2023-04-19T15:44:07.621Z,18.18
2023-04-19T15:46:35.760Z,18.49
2023-04-19T15:49:03.937Z,18.34
2023-04-19T15:51:31.661Z,18.43
2023-04-19T15:53:59.363Z,18.31
2023-04-19T15:56:26.803Z,18.15
2023-04-19T15:58:54.224Z,18.23
2023-04-19T16:01:23.296Z,18.03
2023-04-19T16:03:51.199Z,18.84
2023-04-19T16:06:18.687Z,18.41
2023-04-19T16:08:46.228Z,18.63
2023-04-19T16:11:14.055Z,18.66
2023-04-19T16:13:41.435Z,18.66
2023-04-19T16:16:08.949Z,18.21
2023-04-19T16:18:36.772Z,18.91
2023-04-19T16:21:04.316Z,18.21
2023-04-19T16:23:31.738Z,18.19
2023-04-19T16:25:59.413Z,17.95
2023-04-19T16:28:26.904Z,18.82
2023-04-19T16:30:54.291Z,18.42
2023-04-19T16:33:21.959Z,18.49
2023-04-19T16:35:49.597Z,18.65
2023-04-19T16:38:17.015Z,18.68
2023-04-19T16:40:47.755Z,18.66
2023-04-19T16:43:15.438Z,18.24
2023-04-19T16:45:42.995Z,18.40
2023-04-19T16:48:10.972Z,18.26
2023-04-19T16:50:38.567Z,18.10
2023-04-19T16:53:06.023Z,18.34
2023-04-19T16:55:33.677Z,18.08
2023-04-19T16:58:01.159Z,17.46
2023-04-19T17:00:28.646Z,17.49
2023-04-19T17:02:56.584Z,17.23
2023-04-19T17:05:24.175Z,16.98
2023-04-19T17:07:52.312Z,17.52
2023-04-19T17:10:20.747Z,17.57
2023-04-19T17:12:48.733Z,17.13
2023-04-19T17:15:16.443Z,17.48
2023-04-19T17:17:44.200Z,17.96
2023-04-19T17:20:11.885Z,17.59
2023-04-19T17:22:39.519Z,17.75
2023-04-19T17:25:07.542Z,17.32
2023-04-19T17:27:34.982Z,17.65
2023-04-19T17:30:02.520Z,17.19
2023-04-19T17:32:30.428Z,17.81
2023-04-19T17:34:58.051Z,17.22
2023-04-19T17:37:25.970Z,16.85
2023-04-19T17:39:53.754Z,17.30
2023-04-19T17:42:21.229Z,17.29
2023-04-19T17:44:48.805Z,17.28
2023-04-19T17:47:17.043Z,17.53
2023-04-19T17:49:45.706Z,17.25
2023-04-19T17:52:13.634Z,17.55
2023-04-19T17:54:41.430Z,17.35
2023-04-19T17:57:09.113Z,16.52
2023-04-19T17:59:36.921Z,16.89
2023-04-19T18:02:04.765Z,16.61
2023-04-19T18:04:32.870Z,16.69
2023-04-19T18:07:00.425Z,16.63
2023-04-19T18:09:28.007Z,17.01
2023-04-19T18:11:56.200Z,17.14
2023-04-19T18:14:23.806Z,17.11
2023-04-19T18:16:51.483Z,16.68
2023-04-19T18:19:19.588Z,16.89
2023-04-19T18:21:47.199Z,16.44
2023-04-19T18:24:15.444Z,16.86
2023-04-19T18:26:43.227Z,16.52
2023-04-19T18:29:12.223Z,16.74
2023-04-19T18:31:39.917Z,16.70
2023-04-19T18:34:07.645Z,16.63
2023-04-19T18:36:35.262Z,16.18
2023-04-19T18:39:02.891Z,16.58
2023-04-19T18:41:30.907Z,16.73
2023-04-19T18:46:29.496Z,16.86
2023-04-19T18:48:57.499Z,16.70
2023-04-19T18:51:26.773Z,16.47
2023-04-19T18:53:54.401Z,16.20
2023-04-19T18:56:36.257Z,16.47
2023-04-19T18:59:09.495Z,16.22
2023-04-19T19:01:37.394Z,16.30
2023-04-19T19:06:36.851Z,16.37
2023-04-19T19:09:04.591Z,16.17
2023-04-19T19:14:03.046Z,16.21
2023-04-19T19:16:31.300Z,16.34
2023-04-19T19:18:59.108Z,16.10
2023-04-19T19:21:29.341Z,15.59
2023-04-19T19:23:57.907Z,15.53
2023-04-19T19:26:26.283Z,15.69
2023-04-19T19:28:54.380Z,15.41
2023-04-19T19:31:22.064Z,15.48
2023-04-19T19:33:58.071Z,15.48
2023-04-19T19:36:37.802Z,15.38
2023-04-19T19:39:05.674Z,14.69
2023-04-19T19:42:03.164Z,14.90
2023-04-19T19:44:20.944Z,15.10
2023-04-19T19:46:48.677Z,15.03
2023-04-19T19:49:16.486Z,15.37
2023-04-19T19:51:57.633Z,15.23
2023-04-19T19:54:26.785Z,15.40
2023-04-19T19:57:16.947Z,15.21
2023-04-19T19:59:49.612Z,15.27
2023-04-19T20:02:22.654Z,15.72
2023-04-19T20:04:50.795Z,15.81
2023-04-19T20:07:37.344Z,15.64
2023-04-19T20:10:10.669Z,15.56
2023-04-19T20:12:42.933Z,15.32
2023-04-19T20:15:11.810Z,15.47
2023-04-19T20:17:40.522Z,15.58
2023-04-19T20:20:09.034Z,15.54
2023-04-19T20:22:37.281Z,15.46
2023-04-19T20:25:05.753Z,15.36
2023-04-19T20:27:33.512Z,15.38
2023-04-19T20:30:01.412Z,15.24
2023-04-19T20:32:28.818Z,15.07
2023-04-19T20:34:56.384Z,15.20
2023-04-19T20:37:24.154Z,15.05
2023-04-19T20:39:52.149Z,15.24
2023-04-19T20:42:19.633Z,15.37
2023-04-19T20:44:47.484Z,15.03
2023-04-19T20:47:14.995Z,15.33
2023-04-19T20:49:42.462Z,15.01
2023-04-19T20:52:10.364Z,15.06
2023-04-19T20:54:38.891Z,14.73
2023-04-19T20:57:07.601Z,14.91
2023-04-19T20:59:35.998Z,14.63
2023-04-19T21:02:03.772Z,14.60
2023-04-19T21:04:31.396Z,14.68
2023-04-19T21:07:00.909Z,14.96
2023-04-19T21:09:28.592Z,15.16
2023-04-19T21:11:55.999Z,15.05
2023-04-19T21:14:23.697Z,15.24
2023-04-19T21:16:51.192Z,15.17
2023-04-19T21:19:18.801Z,15.22
2023-04-19T21:21:46.713Z,15.15
2023-04-19T21:24:14.110Z,15.20
2023-04-19T21:26:41.678Z,15.15
2023-04-19T21:29:09.488Z,15.11
2023-04-19T21:31:36.965Z,14.98
2023-04-19T21:34:04.373Z,15.06
2023-04-19T21:36:32.660Z,14.96
2023-04-19T21:39:00.093Z,15.03
2023-04-19T21:41:27.454Z,14.81
2023-04-19T21:43:55.281Z,14.69
2023-04-19T21:46:22.670Z,14.54
2023-04-19T21:48:50.038Z,14.64
2023-04-19T21:51:17.701Z,14.40
2023-04-19T21:53:45.124Z,14.51
2023-04-19T21:56:12.514Z,14.46
2023-04-19T21:58:40.639Z,14.73
2023-04-19T22:01:08.170Z,14.74
2023-04-19T22:03:36.144Z,14.67
2023-04-19T22:06:03.780Z,14.67
2023-04-19T22:08:32.965Z,14.45
2023-04-19T22:11:01.604Z,14.57
2023-04-19T22:13:30.125Z,14.59
2023-04-19T22:15:57.528Z,14.56
2023-04-19T22:18:25.336Z,14.69
2023-04-19T22:20:53.941Z,14.67
2023-04-19T22:23:21.361Z,14.65
2023-04-19T22:25:49.090Z,14.71
2023-04-19T22:28:16.979Z,14.74
2023-04-19T22:30:44.768Z,14.71
2023-04-19T22:33:12.635Z,14.81
2023-04-19T22:35:40.034Z,14.93
2023-04-19T22:38:07.726Z,14.92
2023-04-19T22:40:35.425Z,14.96
2023-04-19T22:43:02.926Z,14.94
2023-04-19T22:45:30.448Z,14.85
2023-04-19T22:47:58.187Z,14.94
2023-04-19T22:50:25.633Z,14.86
2023-04-19T22:52:53.024Z,14.78
2023-04-19T22:55:20.834Z,14.81
2023-04-19T22:57:48.227Z,14.53
2023-04-19T23:00:16.906Z,14.81
2023-04-19T23:02:44.706Z,14.89
2023-04-19T23:05:12.347Z,14.61
2023-04-19T23:07:42.039Z,14.57
2023-04-19T23:10:10.409Z,14.85
2023-04-19T23:12:38.954Z,14.84
2023-04-19T23:15:07.280Z,14.71
2023-04-19T23:17:35.007Z,14.65
2023-04-19T23:20:02.499Z,14.64
2023-04-19T23:22:29.902Z,14.65
2023-04-19T23:24:57.628Z,14.58
2023-04-19T23:27:24.993Z,14.21
2023-04-19T23:29:52.426Z,14.15
2023-04-19T23:32:20.121Z,14.16
2023-04-19T23:34:47.542Z,14.15
2023-04-19T23:37:14.939Z,14.28
2023-04-19T23:39:42.962Z,14.06
2023-04-19T23:42:10.386Z,14.29
2023-04-19T23:44:38.601Z,14.32
2023-04-19T23:47:06.265Z,14.40
2023-04-19T23:49:33.792Z,14.54
2023-04-19T23:52:02.963Z,14.23
2023-04-19T23:54:30.643Z,14.36
2023-04-19T23:56:58.786Z,14.42
2023-04-19T23:59:29.137Z,14.31
